Time;durP1;ratioP1;P1;durP2;ratioP2;P2;SDS_P1;SDS_P2;PMS_P1;PMS_P2;Temp;Humidity;BMP_temperature;BMP_pressure;BME280_temperature;BME280_humidity;BME280_pressure;Samples;Min_cycle;Max_cycle;Signal;HPM_P1;HPM_P2
2021/05/19 00:01:59;;;;;;;7.27;4.43;;;;;;;6.44;98.55;100559.78;4947700;28;20050;-82
2021/05/19 00:04:25;;;;;;;7.03;4.50;;;;;;;6.38;98.58;100565.94;4930781;28;20121;-84
2021/05/19 00:06:52;;;;;;;6.93;4.87;;;;;;;6.39;98.54;100569.41;4945416;28;20519;-83
2021/05/19 00:09:19;;;;;;;7.10;4.77;;;;;;;6.39;97.11;100567.69;4930555;28;20042;-83
2021/05/19 00:11:46;;;;;;;5.90;4.87;;;;;;;6.23;98.94;100567.78;4936898;28;20042;-83
2021/05/19 00:14:15;;;;;;;6.60;4.67;;;;;;;6.18;98.96;100558.16;4910498;29;20047;-82
2021/05/19 00:16:47;;;;;;;6.40;4.00;;;;;;;6.09;99.03;100566.06;4937721;28;20125;-84
2021/05/19 00:19:14;;;;;;;7.97;4.20;;;;;;;6.05;99.07;100561.69;4926702;29;20078;-82
2021/05/19 00:21:41;;;;;;;6.00;4.13;;;;;;;6.04;98.35;100566.94;4940857;28;20062;-83
2021/05/19 00:24:08;;;;;;;7.00;4.40;;;;;;;6.00;98.15;100562.59;4952012;28;20065;-83
2021/05/19 00:26:36;;;;;;;6.27;4.20;;;;;;;6.00;98.81;100554.75;4933395;29;20050;-83
2021/05/19 00:29:08;;;;;;;6.17;4.47;;;;;;;5.97;98.07;100554.72;4936943;28;20057;-83
2021/05/19 00:31:35;;;;;;;7.30;4.77;;;;;;;5.93;98.21;100560.00;4929417;28;20039;-83
2021/05/19 00:34:02;;;;;;;7.17;4.80;;;;;;;5.88;98.18;100553.84;4928319;28;20055;-84
2021/05/19 00:36:28;;;;;;;6.23;4.40;;;;;;;5.83;98.14;100553.00;4935768;28;20046;-83
2021/05/19 00:38:57;;;;;;;10.10;4.53;;;;;;;5.78;97.89;100560.00;4930686;28;20039;-83
2021/05/19 00:41:24;;;;;;;6.17;4.73;;;;;;;5.71;98.29;100558.28;4936211;28;20122;-83
2021/05/19 00:43:51;;;;;;;6.37;4.40;;;;;;;5.69;98.12;100551.28;4936913;28;20055;-84
2021/05/19 00:46:17;;;;;;;7.37;5.00;;;;;;;5.71;98.34;100552.16;4948389;29;20039;-83
2021/05/19 00:48:44;;;;;;;6.50;4.70;;;;;;;5.60;98.63;100553.06;4934841;29;20058;-83
2021/05/19 00:51:11;;;;;;;6.00;4.63;;;;;;;5.52;98.78;100553.94;4921442;29;20633;-83
2021/05/19 00:53:37;;;;;;;6.67;4.30;;;;;;;5.45;99.72;100558.31;4932418;29;20058;-83
2021/05/19 00:56:05;;;;;;;5.00;3.77;;;;;;;5.42;99.58;100560.09;4944629;28;20505;-83
2021/05/19 00:58:33;;;;;;;5.80;4.37;;;;;;;5.42;99.41;100549.59;4948248;29;20446;-84
2021/05/19 01:00:59;;;;;;;5.73;4.53;;;;;;;5.40;99.27;100551.38;4927266;28;20517;-82
2021/05/19 01:03:26;;;;;;;5.27;4.40;;;;;;;5.37;99.75;100546.97;4934779;29;20066;-83
2021/05/19 01:06:06;;;;;;;4.93;4.07;;;;;;;5.36;98.94;100553.97;4932255;29;20043;-83
2021/05/19 01:11:18;;;;;;;6.33;4.63;;;;;;;5.24;98.91;100548.75;4944057;28;20137;-83
2021/05/19 01:13:45;;;;;;;6.03;4.60;;;;;;;5.27;98.76;100550.47;4948354;28;20051;-84
2021/05/19 01:16:13;;;;;;;6.83;4.10;;;;;;;5.23;98.50;100546.13;4943568;28;20046;-84
2021/05/19 01:18:41;;;;;;;6.17;4.83;;;;;;;5.22;98.81;100552.25;4913584;28;20051;-84
2021/05/19 01:21:08;;;;;;;5.77;4.70;;;;;;;5.17;99.18;100553.97;4943515;28;20042;-84
2021/05/19 01:23:37;;;;;;;5.77;4.20;;;;;;;5.22;98.34;100558.34;4935134;28;20035;-84
2021/05/19 01:26:06;;;;;;;6.17;4.67;;;;;;;5.24;97.52;100555.72;4992486;23;20779;-83
2021/05/19 01:28:32;;;;;;;6.37;4.43;;;;;;;5.17;97.35;100561.84;4905468;29;20055;-85
2021/05/19 01:31:00;;;;;;;5.07;3.77;;;;;;;5.10;98.07;100553.09;4906571;29;20046;-85
2021/05/19 01:33:26;;;;;;;7.00;4.90;;;;;;;5.09;97.82;100565.34;4891913;29;20036;-84
2021/05/19 01:35:53;;;;;;;6.13;4.83;;;;;;;4.93;98.11;100558.34;4906712;29;20056;-84
2021/05/19 01:38:20;;;;;;;6.60;4.40;;;;;;;4.92;98.78;100560.97;4918901;29;20497;-86
2021/05/19 01:40:47;;;;;;;9.23;4.37;;;;;;;4.97;98.20;100562.72;4920582;29;20075;-84
2021/05/19 01:43:14;;;;;;;6.77;4.50;;;;;;;4.92;98.03;100567.06;4900808;29;20052;-84
2021/05/19 01:45:40;;;;;;;7.83;5.00;;;;;;;4.88;98.22;100560.09;4929029;29;20501;-85
2021/05/19 01:48:11;;;;;;;6.67;4.80;;;;;;;4.84;98.47;100565.31;4926732;29;20043;-84
2021/05/19 01:50:38;;;;;;;8.73;5.10;;;;;;;4.81;98.37;100563.56;4926359;29;20423;-84
2021/05/19 01:53:05;;;;;;;7.93;4.70;;;;;;;4.75;98.30;100574.91;4923341;29;20500;-84
2021/05/19 01:55:32;;;;;;;7.30;4.77;;;;;;;4.77;97.89;100575.75;4946726;29;20124;-84
2021/05/19 01:57:58;;;;;;;7.17;4.57;;;;;;;4.72;98.48;100576.66;4924550;29;20043;-85
2021/05/19 02:00:27;;;;;;;6.20;4.60;;;;;;;4.64;98.57;100575.75;4939426;29;20057;-83
2021/05/19 02:03:00;;;;;;;6.47;5.00;;;;;;;4.60;98.59;100576.59;4918829;29;20054;-84
2021/05/19 02:05:28;;;;;;;5.60;4.40;;;;;;;4.56;98.56;100567.88;4931948;29;20043;-84
2021/05/19 02:07:55;;;;;;;8.07;4.43;;;;;;;4.57;97.90;100568.75;4925270;29;20044;-84
2021/05/19 02:10:23;;;;;;;5.10;4.07;;;;;;;4.55;97.41;100575.72;4950383;29;20493;-84
2021/05/19 02:12:51;;;;;;;6.83;4.40;;;;;;;4.52;97.51;100580.06;4919081;29;20052;-84
2021/05/19 02:15:19;;;;;;;6.30;4.30;;;;;;;4.55;97.13;100576.59;4937019;29;20125;-85
2021/05/19 02:17:47;;;;;;;6.27;5.00;;;;;;;4.50;97.15;100576.56;4915825;29;20054;-84
2021/05/19 02:20:16;;;;;;;7.03;4.60;;;;;;;4.33;97.94;100578.28;4932669;29;20043;-83
2021/05/19 02:22:43;;;;;;;5.50;4.87;;;;;;;4.23;99.88;100582.59;4924168;28;20043;-83
2021/05/19 02:26:00;;;;;;;6.20;4.43;;;;;;;4.15;99.89;100589.53;5595211;23;21493;-84
2021/05/19 02:29:17;;;;;;;7.23;4.83;;;;;;;4.21;100.00;100588.69;5620159;23;20060;-79
2021/05/19 02:31:44;;;;;;;5.83;4.30;;;;;;;4.22;98.69;100591.31;4954060;28;20050;-80
2021/05/19 02:34:12;;;;;;;11.53;5.53;;;;;;;4.15;98.51;100583.44;4940773;28;20077;-80
2021/05/19 02:36:39;;;;;;;6.33;4.20;;;;;;;4.13;99.25;100587.78;4923540;29;20048;-80
2021/05/19 02:39:11;;;;;;;6.47;4.73;;;;;;;4.14;99.13;100593.03;4919219;29;20045;-81
2021/05/19 02:41:39;;;;;;;8.47;4.37;;;;;;;4.18;98.51;100591.28;4927254;29;20057;-80
2021/05/19 02:44:07;;;;;;;6.30;4.10;;;;;;;4.15;97.71;100588.66;4905300;29;20047;-80
2021/05/19 02:46:34;;;;;;;6.63;4.43;;;;;;;4.09;97.74;100597.34;4917882;29;20052;-81
2021/05/19 02:49:03;;;;;;;6.43;4.30;;;;;;;4.03;98.06;100594.69;4933023;29;20054;-81
2021/05/19 02:51:36;;;;;;;6.77;4.27;;;;;;;4.05;97.67;100589.50;4933796;29;20040;-80
2021/05/19 02:54:04;;;;;;;10.63;4.90;;;;;;;4.00;97.63;100593.81;4930884;29;20488;-81
2021/05/19 02:56:31;;;;;;;6.50;4.30;;;;;;;3.92;98.46;100592.03;4924422;29;20044;-81
2021/05/19 02:58:58;;;;;;;5.67;4.40;;;;;;;3.92;98.71;100597.25;4933035;29;20505;-81
2021/05/19 03:01:25;;;;;;;5.87;4.40;;;;;;;3.87;99.36;100598.13;4930176;29;20520;-80
2021/05/19 03:03:51;;;;;;;6.77;4.10;;;;;;;3.87;100.00;100600.72;4911781;29;20048;-80
2021/05/19 03:06:18;;;;;;;6.93;4.37;;;;;;;3.94;100.00;100597.25;4916104;29;20059;-80
2021/05/19 03:08:45;;;;;;;6.93;4.13;;;;;;;3.96;99.24;100600.78;4919529;29;20051;-82
2021/05/19 03:11:11;;;;;;;7.07;4.43;;;;;;;3.95;98.50;100602.53;4920325;29;20051;-83
2021/05/19 03:13:38;;;;;;;7.97;4.50;;;;;;;3.85;100.00;100611.16;4911618;28;20047;-83
2021/05/19 03:16:05;;;;;;;8.60;4.47;;;;;;;3.90;100.00;100619.03;4925485;29;20043;-82
2021/05/19 03:18:32;;;;;;;8.13;4.67;;;;;;;3.94;100.00;100613.81;4917069;28;20044;-82
2021/05/19 03:21:01;;;;;;;7.27;5.13;;;;;;;3.93;100.00;100619.91;4932425;29;20433;-82
2021/05/19 03:23:29;;;;;;;5.53;4.33;;;;;;;4.00;100.00;100612.97;4915351;29;20043;-82
2021/05/19 03:25:56;;;;;;;7.60;4.97;;;;;;;4.04;100.00;100612.16;4926888;29;20142;-84
2021/05/19 03:28:22;;;;;;;8.50;4.70;;;;;;;4.00;100.00;100614.72;4928036;29;20175;-81
2021/05/19 03:30:50;;;;;;;6.27;4.20;;;;;;;3.98;100.00;100612.09;4922897;29;20051;-83
2021/05/19 03:33:17;;;;;;;6.03;4.50;;;;;;;4.08;100.00;100616.50;4917607;29;20055;-81
2021/05/19 03:35:43;;;;;;;7.83;4.47;;;;;;;4.20;100.00;100624.44;4919653;28;20058;-82
2021/05/19 03:38:10;;;;;;;5.97;4.40;;;;;;;4.26;100.00;100618.34;4916531;29;20485;-82
2021/05/19 03:40:37;;;;;;;6.23;4.73;;;;;;;4.26;100.00;100628.78;4928097;29;20051;-83
2021/05/19 03:43:04;;;;;;;6.73;4.70;;;;;;;4.30;100.00;100625.34;4916630;29;20044;-83
2021/05/19 03:45:31;;;;;;;6.57;4.60;;;;;;;4.35;100.00;100630.56;4918298;28;20643;-83
2021/05/19 03:47:57;;;;;;;6.60;4.73;;;;;;;4.44;100.00;100628.88;4915415;29;20098;-82
2021/05/19 03:50:30;;;;;;;7.10;5.03;;;;;;;4.53;100.00;100638.50;4913699;29;20449;-82
2021/05/19 03:52:58;;;;;;;6.73;4.00;;;;;;;4.66;100.00;100634.19;4917934;29;20067;-83
2021/05/19 03:55:25;;;;;;;7.23;4.90;;;;;;;4.74;100.00;100627.25;4924071;29;20059;-82
2021/05/19 03:57:52;;;;;;;5.50;4.47;;;;;;;4.81;100.00;100629.00;4923627;23;20122;-85
2021/05/19 04:00:22;;;;;;;6.70;4.83;;;;;;;4.91;100.00;100636.00;4943253;29;20608;-84
2021/05/19 04:02:49;;;;;;;12.37;6.07;;;;;;;4.99;100.00;100636.91;4928126;29;20058;-84
2021/05/19 04:05:23;;;;;;;6.90;4.90;;;;;;;5.09;100.00;100630.78;4918822;29;20035;-84
2021/05/19 04:07:51;;;;;;;6.70;5.18;;;;;;;5.16;100.00;100625.56;4942056;28;20514;-84
2021/05/19 04:10:18;;;;;;;7.13;5.27;;;;;;;5.22;100.00;100629.06;4917658;28;20047;-84
2021/05/19 04:12:48;;;;;;;7.73;5.50;;;;;;;5.37;100.00;100628.19;4918852;29;20047;-85
2021/05/19 04:15:16;;;;;;;7.67;5.80;;;;;;;5.51;100.00;100634.31;4917437;29;20054;-83
2021/05/19 04:17:43;;;;;;;7.83;4.87;;;;;;;5.48;100.00;100636.06;4940268;28;20047;-84
2021/05/19 04:20:11;;;;;;;7.17;4.77;;;;;;;5.41;100.00;100637.81;4944432;28;20170;-84
2021/05/19 04:22:38;;;;;;;6.43;5.17;;;;;;;5.33;100.00;100636.94;4910006;29;20058;-84
2021/05/19 04:25:05;;;;;;;6.20;4.80;;;;;;;5.31;100.00;100636.06;4933127;29;20049;-83
2021/05/19 04:27:32;;;;;;;5.93;4.53;;;;;;;5.33;100.00;100642.16;4916103;29;20603;-84
2021/05/19 04:29:59;;;;;;;6.33;4.70;;;;;;;5.25;100.00;100641.28;4925606;29;20055;-84
2021/05/19 04:32:26;;;;;;;6.33;4.47;;;;;;;5.22;100.00;100636.06;4919467;29;20047;-84
2021/05/19 04:34:52;;;;;;;4.93;4.00;;;;;;;5.20;100.00;100648.25;4925538;29;20462;-83
2021/05/19 04:37:19;;;;;;;6.20;4.80;;;;;;;5.22;100.00;100652.66;4909423;29;20065;-82
2021/05/19 04:39:46;;;;;;;5.83;4.50;;;;;;;5.22;100.00;100646.53;4923611;29;20055;-83
2021/05/19 04:42:13;;;;;;;7.10;4.80;;;;;;;5.29;100.00;100648.25;4932843;29;20063;-83
2021/05/19 04:44:39;;;;;;;6.80;4.50;;;;;;;5.34;100.00;100649.16;4900990;29;20074;-82
2021/05/19 04:47:06;;;;;;;6.37;5.00;;;;;;;5.44;100.00;100650.91;4911146;29;20573;-82
2021/05/19 04:49:33;;;;;;;8.50;5.20;;;;;;;5.59;100.00;100650.91;4915773;29;20059;-82
2021/05/19 04:52:00;;;;;;;7.50;4.80;;;;;;;5.57;100.00;100647.41;4916211;29;20054;-83
2021/05/19 04:54:27;;;;;;;7.77;5.30;;;;;;;5.65;100.00;100650.91;4928213;29;20039;-82
2021/05/19 04:56:53;;;;;;;6.63;4.70;;;;;;;5.75;100.00;100653.53;4939794;29;20047;-82
2021/05/19 04:59:20;;;;;;;6.80;4.70;;;;;;;5.89;100.00;100657.00;4904058;29;20495;-83
2021/05/19 05:01:47;;;;;;;7.80;5.97;;;;;;;5.95;100.00;100646.53;4933565;29;20039;-84
2021/05/19 05:04:13;;;;;;;8.77;5.67;;;;;;;6.09;100.00;100657.88;4931855;29;20510;-84
2021/05/19 05:06:40;;;;;;;7.43;6.07;;;;;;;6.19;100.00;100663.97;4928626;29;20424;-83
2021/05/19 05:09:07;;;;;;;8.23;5.93;;;;;;;6.14;100.00;100657.88;4933183;28;20043;-84
2021/05/19 05:11:33;;;;;;;9.23;4.93;;;;;;;6.22;100.00;100666.56;4916883;29;20146;-84
2021/05/19 05:14:00;;;;;;;6.03;5.07;;;;;;;6.32;100.00;100665.69;4934761;29;20051;-83
2021/05/19 05:16:27;;;;;;;7.40;4.97;;;;;;;6.41;100.00;100670.03;4918131;29;20450;-83
2021/05/19 05:18:53;;;;;;;9.00;6.43;;;;;;;6.61;100.00;100664.69;4929628;29;20454;-84
2021/05/19 05:21:20;;;;;;;10.30;5.60;;;;;;;6.71;100.00;100671.63;4914823;29;20062;-84
2021/05/19 05:23:47;;;;;;;7.77;5.20;;;;;;;6.75;100.00;100668.13;4942358;28;20043;-84
2021/05/19 05:26:14;;;;;;;8.07;5.60;;;;;;;6.80;100.00;100671.59;4943035;29;20052;-83
2021/05/19 05:28:41;;;;;;;9.40;6.30;;;;;;;6.92;100.00;100665.44;4916601;29;20068;-83
2021/05/19 05:31:08;;;;;;;12.93;7.80;;;;;;;7.12;100.00;100673.19;4921220;29;20043;-85
2021/05/19 05:33:35;;;;;;;9.50;6.77;;;;;;;7.13;100.00;100673.16;4924671;29;20505;-84
2021/05/19 05:36:04;;;;;;;9.63;6.77;;;;;;;7.17;100.00;100671.41;4918220;29;20490;-84
2021/05/19 05:38:31;;;;;;;11.13;6.73;;;;;;;7.30;100.00;100678.31;4920006;29;20051;-84
2021/05/19 05:40:57;;;;;;;12.60;7.70;;;;;;;7.42;100.00;100672.97;4910666;29;20629;-84
2021/05/19 05:43:24;;;;;;;53.97;35.53;;;;;;;7.61;100.00;100678.97;4930966;29;20131;-84
2021/05/19 05:45:51;;;;;;;50.40;32.50;;;;;;;7.65;100.00;100678.06;4929694;29;20039;-84
2021/05/19 05:48:17;;;;;;;23.50;16.60;;;;;;;7.84;100.00;100678.78;4891207;29;20674;-84
2021/05/19 05:50:44;;;;;;;14.57;11.10;;;;;;;8.11;100.00;100682.91;4910049;29;20044;-83
2021/05/19 05:53:11;;;;;;;13.40;10.40;;;;;;;8.18;100.00;100687.22;4931200;28;20052;-84
2021/05/19 05:55:37;;;;;;;20.92;18.75;;;;;;;8.62;100.00;100681.47;4913151;29;20078;-83
2021/05/19 05:58:04;;;;;;;11.93;8.60;;;;;;;10.27;100.00;100672.81;4918758;29;20051;-82
2021/05/19 06:00:31;;;;;;;8.50;6.15;;;;;;;12.37;88.02;100672.34;4910539;29;20043;-83
2021/05/19 06:02:58;;;;;;;8.77;6.13;;;;;;;13.93;77.55;100668.41;4920098;29;20470;-82
2021/05/19 06:05:26;;;;;;;7.63;6.35;;;;;;;14.31;75.25;100672.38;4940362;29;20044;-83
2021/05/19 06:07:53;;;;;;;8.50;6.38;;;;;;;14.28;69.46;100675.13;4910703;29;20496;-83
2021/05/19 06:10:20;;;;;;;9.05;5.78;;;;;;;14.50;72.59;100669.09;4927119;29;20114;-83
2021/05/19 06:12:46;;;;;;;9.00;6.32;;;;;;;14.27;72.33;100675.19;4940012;28;20046;-82
2021/05/19 06:15:13;;;;;;;11.98;5.40;;;;;;;14.25;74.78;100666.41;4922245;29;20043;-82
2021/05/19 06:17:40;;;;;;;6.78;5.60;;;;;;;14.13;74.10;100677.50;4923118;29;20174;-83
2021/05/19 06:20:07;;;;;;;10.48;6.10;;;;;;;14.43;75.21;100681.69;4942334;28;20047;-81
2021/05/19 06:22:34;;;;;;;6.95;5.43;;;;;;;14.74;73.66;100680.63;4935884;29;20054;-82
2021/05/19 06:25:01;;;;;;;6.53;5.13;;;;;;;14.78;69.48;100685.75;4943630;29;20105;-82
2021/05/19 06:27:28;;;;;;;5.97;4.88;;;;;;;14.35;70.03;100689.06;4908259;28;20046;-82
2021/05/19 06:29:54;;;;;;;5.40;4.68;;;;;;;14.57;71.54;100686.56;4909767;29;20052;-83
2021/05/19 06:32:21;;;;;;;8.75;4.88;;;;;;;14.46;71.44;100676.31;4942881;28;20063;-82
2021/05/19 06:34:48;;;;;;;5.78;4.40;;;;;;;14.79;71.01;100683.94;4934250;28;20050;-83
2021/05/19 06:37:14;;;;;;;5.22;4.22;;;;;;;14.92;70.43;100683.44;4933608;29;20143;-83
2021/05/19 06:39:41;;;;;;;5.53;3.70;;;;;;;15.05;69.21;100685.63;4951661;29;20094;-83
2021/05/19 06:42:08;;;;;;;5.80;4.32;;;;;;;15.09;69.35;100688.13;4934914;29;20047;-83
2021/05/19 06:44:35;;;;;;;5.88;4.38;;;;;;;14.81;68.68;100684.78;4919967;29;20046;-83
2021/05/19 06:47:02;;;;;;;5.70;4.05;;;;;;;14.76;69.56;100684.09;4937687;29;20574;-84
2021/05/19 06:49:27;;;;;;;4.57;3.75;;;;;;;14.30;72.38;100685.72;4922726;29;20062;-83
2021/05/19 06:51:54;;;;;;;5.30;4.38;;;;;;;14.27;67.45;100678.72;4912717;29;20440;-83
2021/05/19 06:54:22;;;;;;;6.63;4.38;;;;;;;14.55;69.29;100680.44;4937733;28;20445;-83
2021/05/19 06:56:49;;;;;;;5.00;4.22;;;;;;;14.86;68.19;100685.47;4937863;29;20548;-83
2021/05/19 06:59:17;;;;;;;4.50;3.70;;;;;;;14.18;66.96;100681.69;4949744;29;20051;-82
2021/05/19 07:01:45;;;;;;;6.15;3.97;;;;;;;14.62;67.92;100681.91;4902625;29;20050;-82
2021/05/19 07:04:12;;;;;;;6.60;3.92;;;;;;;14.44;66.24;100682.56;4914569;29;20043;-83
2021/05/19 07:06:40;;;;;;;4.65;3.70;;;;;;;14.47;68.73;100683.38;4917560;29;20055;-82
2021/05/19 07:09:06;;;;;;;5.22;4.32;;;;;;;14.41;70.35;100690.66;4920729;29;20743;-81
2021/05/19 07:11:33;;;;;;;5.60;3.50;;;;;;;14.50;69.89;100685.91;4945813;29;20043;-81
2021/05/19 07:14:01;;;;;;;3.85;3.30;;;;;;;14.86;69.03;100690.78;4940692;29;20051;-82
2021/05/19 07:16:30;;;;;;;3.90;3.50;;;;;;;15.18;69.43;100695.75;4940114;29;20075;-81
2021/05/19 07:18:56;;;;;;;6.68;3.75;;;;;;;15.28;63.94;100690.06;4935319;29;20044;-84
2021/05/19 07:21:24;;;;;;;4.85;3.60;;;;;;;14.91;66.06;100694.16;4931434;28;20042;-82
2021/05/19 07:23:51;;;;;;;3.67;2.95;;;;;;;14.86;66.73;100698.75;4915269;29;20048;-82
2021/05/19 07:26:20;;;;;;;3.72;3.05;;;;;;;14.38;67.19;100694.31;4936272;29;20058;-83
2021/05/19 07:28:46;;;;;;;3.55;2.70;;;;;;;14.67;66.80;100698.59;4927536;29;20049;-82
2021/05/19 07:31:13;;;;;;;5.38;3.42;;;;;;;15.09;68.62;100692.56;4917437;29;20051;-81
2021/05/19 07:33:40;;;;;;;3.67;2.60;;;;;;;15.45;63.59;100691.13;4912587;29;20058;-82
2021/05/19 07:36:07;;;;;;;3.75;2.80;;;;;;;15.72;63.32;100691.84;4917873;29;20043;-83
2021/05/19 07:38:33;;;;;;;6.13;2.58;;;;;;;15.81;62.91;100693.28;4935741;29;20054;-82
2021/05/19 07:41:00;;;;;;;3.05;2.35;;;;;;;15.85;61.44;100699.31;4912510;29;20055;-81
2021/05/19 07:43:27;;;;;;;3.08;2.15;;;;;;;15.84;60.85;100694.94;4895361;29;20050;-82
2021/05/19 07:45:54;;;;;;;4.30;2.20;;;;;;;15.90;58.62;100702.69;4931776;29;20051;-84
2021/05/19 07:48:19;;;;;;;2.50;1.90;;;;;;;16.25;62.92;100701.19;4915478;29;20420;-83
2021/05/19 07:50:45;;;;;;;4.15;2.65;;;;;;;16.51;58.00;100687.56;4937700;29;20035;-82
2021/05/19 07:53:10;;;;;;;3.72;2.55;;;;;;;16.31;59.51;100696.44;4926647;29;20617;-82
2021/05/19 07:55:51;;;;;;;2.13;1.77;;;;;;;16.23;56.57;100693.25;4916818;29;20039;-81
2021/05/19 07:58:27;;;;;;;2.22;1.90;;;;;;;16.25;59.06;100691.38;4924256;29;20050;-83
2021/05/19 08:03:20;;;;;;;2.65;2.10;;;;;;;15.93;55.36;100707.88;4908829;29;20130;-85
2021/05/19 08:05:46;;;;;;;1.80;1.67;;;;;;;15.50;57.71;100709.59;4935670;29;20130;-84
2021/05/19 08:08:11;;;;;;;2.20;1.70;;;;;;;15.67;60.76;100706.28;4904148;29;20042;-84
2021/05/19 08:10:39;;;;;;;3.17;1.77;;;;;;;15.77;55.43;100703.16;4919605;29;20496;-83
2021/05/19 08:13:04;;;;;;;3.25;2.10;;;;;;;15.76;57.15;100704.09;4925428;29;20062;-84
2021/05/19 08:15:30;;;;;;;2.80;1.77;;;;;;;15.60;57.90;100710.09;4922075;29;20075;-83
2021/05/19 08:17:56;;;;;;;2.35;1.95;;;;;;;15.46;55.94;100711.50;4904359;29;20535;-83
2021/05/19 08:20:22;;;;;;;1.77;1.48;;;;;;;15.80;55.73;100701.31;4943795;29;20056;-84
2021/05/19 08:22:49;;;;;;;2.92;1.60;;;;;;;16.17;57.55;100706.84;4935853;29;20043;-85
2021/05/19 08:25:16;;;;;;;3.00;1.67;;;;;;;16.30;55.59;100705.34;4935743;29;20540;-84
2021/05/19 08:27:43;;;;;;;4.00;1.95;;;;;;;16.29;55.29;100698.28;4927261;29;20581;-84
2021/05/19 08:30:12;;;;;;;2.30;1.80;;;;;;;15.98;56.44;100717.41;4916192;29;20535;-84
2021/05/19 08:32:39;;;;;;;2.22;1.80;;;;;;;15.62;56.97;100716.25;4917511;29;20047;-83
2021/05/19 08:35:06;;;;;;;3.47;1.95;;;;;;;15.12;57.00;100724.38;4916343;29;20055;-85
2021/05/19 08:37:33;;;;;;;2.90;2.08;;;;;;;15.31;58.84;100722.78;4944891;29;20133;-84
2021/05/19 08:40:00;;;;;;;2.58;2.08;;;;;;;15.75;60.87;100709.50;4929867;29;20051;-83
2021/05/19 08:42:27;;;;;;;3.17;2.13;;;;;;;16.00;56.36;100717.34;4935011;29;20050;-83
2021/05/19 08:44:55;;;;;;;3.22;1.90;;;;;;;16.22;57.05;100714.63;4893377;29;20040;-83
2021/05/19 08:47:23;;;;;;;2.70;1.70;;;;;;;16.22;54.29;100715.47;4915496;29;20066;-84
2021/05/19 08:49:50;;;;;;;3.25;2.28;;;;;;;16.15;54.51;100716.69;4932653;29;20043;-84
2021/05/19 08:52:18;;;;;;;2.42;1.85;;;;;;;16.07;54.37;100713.50;4914641;29;20223;-82
2021/05/19 08:54:48;;;;;;;2.08;1.60;;;;;;;15.96;55.50;100713.91;4919001;29;20057;-83
2021/05/19 08:57:16;;;;;;;2.20;1.67;;;;;;;16.00;55.04;100715.53;4904426;29;20047;-82
2021/05/19 08:59:43;;;;;;;3.40;1.70;;;;;;;15.87;54.23;100713.44;4918843;29;20035;-85
2021/05/19 09:02:12;;;;;;;1.55;1.42;;;;;;;15.75;53.19;100712.16;4900406;29;20056;-86
2021/05/19 09:04:40;;;;;;;1.60;1.50;;;;;;;15.68;54.95;100727.53;4931007;29;20043;-83
2021/05/19 09:07:09;;;;;;;2.90;1.80;;;;;;;15.24;53.92;100723.94;4931228;29;20102;-82
2021/05/19 09:09:38;;;;;;;2.90;1.63;;;;;;;15.26;54.48;100713.22;4928933;29;20046;-84
2021/05/19 09:12:08;;;;;;;3.53;1.70;;;;;;;15.67;58.11;100724.91;4914582;29;20055;-81
2021/05/19 09:14:43;;;;;;;1.92;1.42;;;;;;;15.93;56.66;100723.84;4915538;29;20410;-84
2021/05/19 09:17:16;;;;;;;3.25;1.40;;;;;;;15.60;54.00;100721.59;4924347;29;20044;-79
2021/05/19 09:19:44;;;;;;;3.10;1.60;;;;;;;16.41;56.68;100712.91;4930130;29;20043;-82
2021/05/19 09:22:25;;;;;;;2.30;1.52;;;;;;;16.82;52.97;100716.44;4899547;29;20043;-84
2021/05/19 09:24:52;;;;;;;1.92;1.40;;;;;;;17.28;52.75;100716.09;4914121;29;20047;-82
2021/05/19 09:27:20;;;;;;;3.33;2.08;;;;;;;17.36;49.78;100701.44;4933186;29;20070;-82
2021/05/19 09:29:52;;;;;;;1.42;1.33;;;;;;;17.79;50.21;100709.19;4925245;29;20044;-83
2021/05/19 09:32:20;;;;;;;2.00;1.45;;;;;;;17.44;50.10;100717.09;4914443;29;20082;-82
2021/05/19 09:34:55;;;;;;;2.55;1.45;;;;;;;17.93;50.33;100715.59;4906658;29;20059;-82
2021/05/19 09:37:26;;;;;;;3.20;1.55;;;;;;;17.65;50.68;100723.19;4913896;29;20444;-82
2021/05/19 09:40:04;;;;;;;4.68;1.70;;;;;;;17.28;50.97;100721.44;4904683;29;20051;-82
2021/05/19 09:42:37;;;;;;;1.63;1.45;;;;;;;16.39;50.92;100729.88;4935246;29;20571;-84
2021/05/19 09:45:41;;;;;;;2.25;1.30;;;;;;;16.51;52.74;100719.56;4922003;29;20070;-83
2021/05/19 09:48:14;;;;;;;2.72;2.15;;;;;;;16.88;51.63;100712.59;4918521;29;20051;-80
2021/05/19 09:50:42;;;;;;;1.58;1.48;;;;;;;17.06;52.21;100726.91;4929124;29;20050;-82
2021/05/19 09:53:13;;;;;;;2.33;1.63;;;;;;;16.63;51.28;100710.13;4906626;29;20044;-84
2021/05/19 09:55:42;;;;;;;2.38;1.70;;;;;;;15.80;53.26;100723.47;4921053;29;20050;-83
2021/05/19 09:58:09;;;;;;;1.98;1.30;;;;;;;15.64;53.09;100733.06;4924985;29;20051;-85
2021/05/19 10:00:36;;;;;;;1.73;1.30;;;;;;;15.89;54.11;100724.91;4933918;29;20052;-81
2021/05/19 10:03:06;;;;;;;2.03;1.67;;;;;;;15.85;52.79;100726.84;4918705;29;20275;-85
2021/05/19 10:05:38;;;;;;;1.95;1.58;;;;;;;15.90;51.29;100729.31;4938105;29;20054;-85
2021/05/19 10:08:05;;;;;;;1.90;1.50;;;;;;;15.78;50.53;100720.00;4938027;29;20520;-84
2021/05/19 10:10:31;;;;;;;2.88;1.40;;;;;;;15.81;51.15;100727.91;4916168;29;20040;-87
2021/05/19 10:12:59;;;;;;;1.80;1.60;;;;;;;15.79;55.21;100721.75;4913441;29;20138;-84
2021/05/19 10:15:28;;;;;;;2.53;1.60;;;;;;;16.38;54.12;100712.16;4914950;29;20043;-83
2021/05/19 10:18:01;;;;;;;2.90;1.77;;;;;;;16.24;50.99;100718.09;4935703;28;20043;-84
2021/05/19 10:20:31;;;;;;;2.00;1.55;;;;;;;16.18;51.93;100732.56;4928282;29;20046;-84
2021/05/19 10:22:58;;;;;;;2.83;1.70;;;;;;;15.64;52.73;100723.25;4922281;29;20098;-84
2021/05/19 10:25:38;;;;;;;1.80;1.60;;;;;;;15.86;53.67;100733.88;4922130;29;20054;-84
2021/05/19 10:28:17;;;;;;;2.63;1.80;;;;;;;16.09;55.32;100726.75;4932372;29;20442;-83
2021/05/19 10:30:46;;;;;;;2.92;1.77;;;;;;;16.21;53.90;100723.53;4932291;29;20050;-84
2021/05/19 10:33:32;;;;;;;3.60;2.03;;;;;;;16.31;54.99;100733.78;4934662;29;20513;-83
2021/05/19 10:36:00;;;;;;;3.03;1.98;;;;;;;16.50;52.77;100724.97;4904782;29;20047;-83
2021/05/19 10:38:32;;;;;;;4.00;2.00;;;;;;;16.44;49.75;100719.91;4917776;29;20421;-83
2021/05/19 10:41:01;;;;;;;2.97;1.88;;;;;;;16.01;54.48;100727.94;4918891;29;20492;-84
2021/05/19 10:43:48;;;;;;;2.38;1.70;;;;;;;15.88;54.63;100725.84;4914922;29;20053;-83
2021/05/19 10:46:56;;;;;;;3.60;1.95;;;;;;;15.70;52.76;100724.78;4921321;29;20642;-83
2021/05/19 10:49:46;;;;;;;3.92;2.00;;;;;;;15.73;53.74;100733.53;4932743;29;20044;-84
2021/05/19 10:52:44;;;;;;;2.60;1.90;;;;;;;15.56;51.78;100732.44;4930244;28;20127;-83
2021/05/19 10:58:00;;;;;;;3.70;2.08;;;;;;;15.92;53.42;100727.44;4938056;29;20047;-83
2021/05/19 11:00:28;;;;;;;2.88;2.05;;;;;;;16.34;50.97;100727.44;4901713;29;20136;-82
2021/05/19 11:02:58;;;;;;;3.03;1.75;;;;;;;16.14;51.54;100730.06;4918823;29;20569;-82
2021/05/19 11:05:36;;;;;;;3.85;1.92;;;;;;;16.39;48.16;100717.41;4929598;29;20058;-83
2021/05/19 11:08:29;;;;;;;2.42;1.77;;;;;;;16.54;48.88;100718.56;4924709;29;20091;-84
2021/05/19 11:11:22;;;;;;;2.53;2.10;;;;;;;16.32;49.54;100723.97;4933966;29;20094;-84
2021/05/19 11:14:24;;;;;;;3.40;1.80;;;;;;;16.18;50.95;100735.22;4924985;29;20082;-84
2021/05/19 11:19:31;;;;;;;2.08;1.42;;;;;;;15.73;49.74;100728.22;4918585;29;20036;-84
2021/05/19 11:22:04;;;;;;;2.20;1.50;;;;;;;15.62;50.80;100734.88;4927195;29;20043;-82
2021/05/19 11:24:49;;;;;;;2.20;1.73;;;;;;;16.13;53.80;100731.88;4925997;29;20044;-83
2021/05/19 11:27:21;;;;;;;2.00;1.40;;;;;;;16.59;54.23;100719.22;4921029;29;20073;-84
2021/05/19 11:29:48;;;;;;;1.70;1.38;;;;;;;16.96;51.71;100720.25;4942996;29;20416;-84
2021/05/19 11:32:20;;;;;;;2.00;1.77;;;;;;;17.04;49.14;100721.63;4930674;28;20046;-83
2021/05/19 11:34:49;;;;;;;1.95;1.60;;;;;;;16.47;47.90;100728.63;4916648;29;20066;-84
2021/05/19 11:37:19;;;;;;;2.85;1.60;;;;;;;16.24;49.24;100734.97;4990334;23;20055;-88
2021/05/19 11:39:58;;;;;;;2.25;1.48;;;;;;;15.84;49.72;100729.56;4897049;29;20043;-87
2021/05/19 11:42:28;;;;;;;3.33;1.70;;;;;;;15.89;51.31;100728.47;4935223;29;20039;-87
2021/05/19 11:44:56;;;;;;;2.33;1.55;;;;;;;15.90;50.16;100735.50;4918763;29;20508;-86
2021/05/19 11:47:29;;;;;;;2.17;1.60;;;;;;;15.63;50.71;100723.28;4901839;29;20044;-88